sensor_id;sensor_type;location;lat;lon;timestamp;temperature;humidity
41220;DHT22;26951;47.338;9.196;2022-09-14T00:01:37;17.60;71.30
41220;DHT22;26951;47.338;9.196;2022-09-14T00:04:22;17.60;71.20
41220;DHT22;26951;47.338;9.196;2022-09-14T00:07:07;17.60;71.40
41220;DHT22;26951;47.338;9.196;2022-09-14T00:09:51;17.50;71.30
41220;DHT22;26951;47.338;9.196;2022-09-14T00:12:35;17.50;70.80
41220;DHT22;26951;47.338;9.196;2022-09-14T00:15:19;17.50;71.00
41220;DHT22;26951;47.338;9.196;2022-09-14T00:18:04;17.50;70.70
41220;DHT22;26951;47.338;9.196;2022-09-14T00:20:48;17.50;71.00
41220;DHT22;26951;47.338;9.196;2022-09-14T00:23:37;17.50;70.50
41220;DHT22;26951;47.338;9.196;2022-09-14T00:26:22;17.50;70.50
41220;DHT22;26951;47.338;9.196;2022-09-14T00:29:06;17.50;71.10
41220;DHT22;26951;47.338;9.196;2022-09-14T00:31:50;17.40;71.50
41220;DHT22;26951;47.338;9.196;2022-09-14T00:34:34;17.40;70.90
41220;DHT22;26951;47.338;9.196;2022-09-14T00:37:19;17.40;70.60
41220;DHT22;26951;47.338;9.196;2022-09-14T00:40:04;17.40;70.90
41220;DHT22;26951;47.338;9.196;2022-09-14T00:42:48;17.40;70.80
41220;DHT22;26951;47.338;9.196;2022-09-14T00:45:32;17.50;71.60
41220;DHT22;26951;47.338;9.196;2022-09-14T00:48:17;17.50;71.50
41220;DHT22;26951;47.338;9.196;2022-09-14T00:51:01;17.50;71.40
41220;DHT22;26951;47.338;9.196;2022-09-14T00:53:46;17.50;71.50
41220;DHT22;26951;47.338;9.196;2022-09-14T00:56:30;17.50;72.00
41220;DHT22;26951;47.338;9.196;2022-09-14T00:59:17;17.50;72.50
41220;DHT22;26951;47.338;9.196;2022-09-14T01:02:04;17.60;73.20
41220;DHT22;26951;47.338;9.196;2022-09-14T01:04:50;17.60;72.60
41220;DHT22;26951;47.338;9.196;2022-09-14T01:08:06;17.60;71.70
41220;DHT22;26951;47.338;9.196;2022-09-14T01:11:03;17.60;71.00
41220;DHT22;26951;47.338;9.196;2022-09-14T01:17:24;17.70;71.20
41220;DHT22;26951;47.338;9.196;2022-09-14T01:20:24;17.70;71.70
41220;DHT22;26951;47.338;9.196;2022-09-14T01:32:19;17.80;72.80
41220;DHT22;26951;47.338;9.196;2022-09-14T01:38:06;17.80;72.80
41220;DHT22;26951;47.338;9.196;2022-09-14T01:40:52;17.80;73.30
41220;DHT22;26951;47.338;9.196;2022-09-14T01:44:30;17.80;73.00
41220;DHT22;26951;47.338;9.196;2022-09-14T01:47:04;17.70;73.80
41220;DHT22;26951;47.338;9.196;2022-09-14T01:49:52;17.70;73.10
41220;DHT22;26951;47.338;9.196;2022-09-14T01:52:43;17.70;73.60
41220;DHT22;26951;47.338;9.196;2022-09-14T01:55:33;17.80;73.80
41220;DHT22;26951;47.338;9.196;2022-09-14T01:58:44;17.70;73.50
41220;DHT22;26951;47.338;9.196;2022-09-14T02:01:36;17.80;74.20
41220;DHT22;26951;47.338;9.196;2022-09-14T02:07:35;17.70;73.60
41220;DHT22;26951;47.338;9.196;2022-09-14T02:10:20;17.80;73.40
41220;DHT22;26951;47.338;9.196;2022-09-14T02:13:04;17.80;73.80
41220;DHT22;26951;47.338;9.196;2022-09-14T02:15:50;17.80;73.30
41220;DHT22;26951;47.338;9.196;2022-09-14T02:18:34;17.80;72.80
41220;DHT22;26951;47.338;9.196;2022-09-14T02:21:27;17.80;71.10
41220;DHT22;26951;47.338;9.196;2022-09-14T02:24:12;17.90;72.10
41220;DHT22;26951;47.338;9.196;2022-09-14T02:27:00;17.90;72.90
41220;DHT22;26951;47.338;9.196;2022-09-14T02:29:45;17.90;72.00
41220;DHT22;26951;47.338;9.196;2022-09-14T02:32:38;17.90;70.50
41220;DHT22;26951;47.338;9.196;2022-09-14T02:35:46;17.90;71.40
41220;DHT22;26951;47.338;9.196;2022-09-14T02:38:44;17.90;71.10
41220;DHT22;26951;47.338;9.196;2022-09-14T02:41:52;17.90;70.70
41220;DHT22;26951;47.338;9.196;2022-09-14T02:53:15;18.10;70.40
41220;DHT22;26951;47.338;9.196;2022-09-14T02:56:05;18.10;70.00
41220;DHT22;26951;47.338;9.196;2022-09-14T02:58:51;18.10;69.50
41220;DHT22;26951;47.338;9.196;2022-09-14T03:01:37;18.10;68.70
41220;DHT22;26951;47.338;9.196;2022-09-14T03:04:21;18.10;68.90
41220;DHT22;26951;47.338;9.196;2022-09-14T03:07:05;18.10;69.60
41220;DHT22;26951;47.338;9.196;2022-09-14T03:09:49;18.20;69.40
41220;DHT22;26951;47.338;9.196;2022-09-14T03:12:38;18.20;69.20
41220;DHT22;26951;47.338;9.196;2022-09-14T03:15:22;18.30;69.10
41220;DHT22;26951;47.338;9.196;2022-09-14T03:18:07;18.30;69.30
41220;DHT22;26951;47.338;9.196;2022-09-14T03:20:51;18.40;69.70
41220;DHT22;26951;47.338;9.196;2022-09-14T03:23:40;18.40;68.90
41220;DHT22;26951;47.338;9.196;2022-09-14T03:26:26;18.50;69.30
41220;DHT22;26951;47.338;9.196;2022-09-14T03:29:12;18.50;68.50
41220;DHT22;26951;47.338;9.196;2022-09-14T03:31:56;18.50;68.40
41220;DHT22;26951;47.338;9.196;2022-09-14T03:34:40;18.60;68.30
41220;DHT22;26951;47.338;9.196;2022-09-14T03:37:25;18.60;68.40
41220;DHT22;26951;47.338;9.196;2022-09-14T03:40:10;18.60;68.60
41220;DHT22;26951;47.338;9.196;2022-09-14T03:42:54;18.60;68.20
41220;DHT22;26951;47.338;9.196;2022-09-14T03:45:39;18.60;68.50
41220;DHT22;26951;47.338;9.196;2022-09-14T03:48:23;18.70;68.00
41220;DHT22;26951;47.338;9.196;2022-09-14T03:51:08;18.70;67.80
41220;DHT22;26951;47.338;9.196;2022-09-14T03:53:53;18.70;67.10
41220;DHT22;26951;47.338;9.196;2022-09-14T03:56:37;18.70;67.30
41220;DHT22;26951;47.338;9.196;2022-09-14T03:59:21;18.70;67.80
41220;DHT22;26951;47.338;9.196;2022-09-14T04:02:05;18.70;68.40
41220;DHT22;26951;47.338;9.196;2022-09-14T04:04:49;18.70;68.80
41220;DHT22;26951;47.338;9.196;2022-09-14T04:07:34;18.60;68.40
41220;DHT22;26951;47.338;9.196;2022-09-14T04:10:18;18.60;69.10
41220;DHT22;26951;47.338;9.196;2022-09-14T04:13:02;18.60;69.70
41220;DHT22;26951;47.338;9.196;2022-09-14T04:15:57;18.60;70.40
41220;DHT22;26951;47.338;9.196;2022-09-14T04:18:42;18.50;71.50
41220;DHT22;26951;47.338;9.196;2022-09-14T04:21:26;18.50;71.40
41220;DHT22;26951;47.338;9.196;2022-09-14T04:24:11;18.40;71.30
41220;DHT22;26951;47.338;9.196;2022-09-14T04:26:59;18.40;71.30
41220;DHT22;26951;47.338;9.196;2022-09-14T04:29:43;18.30;70.20
41220;DHT22;26951;47.338;9.196;2022-09-14T04:32:28;18.30;69.70
41220;DHT22;26951;47.338;9.196;2022-09-14T04:35:12;18.30;69.40
41220;DHT22;26951;47.338;9.196;2022-09-14T04:37:56;18.30;70.00
41220;DHT22;26951;47.338;9.196;2022-09-14T04:40:40;18.20;70.20
41220;DHT22;26951;47.338;9.196;2022-09-14T04:43:25;18.20;70.10
41220;DHT22;26951;47.338;9.196;2022-09-14T04:46:12;18.10;70.60
41220;DHT22;26951;47.338;9.196;2022-09-14T04:48:57;18.10;70.40
41220;DHT22;26951;47.338;9.196;2022-09-14T04:51:42;18.10;71.90
41220;DHT22;26951;47.338;9.196;2022-09-14T04:54:26;18.00;71.00
41220;DHT22;26951;47.338;9.196;2022-09-14T04:57:11;18.00;71.40
41220;DHT22;26951;47.338;9.196;2022-09-14T04:59:55;17.90;70.90
41220;DHT22;26951;47.338;9.196;2022-09-14T05:02:40;17.80;70.80
41220;DHT22;26951;47.338;9.196;2022-09-14T05:05:24;17.80;71.10
41220;DHT22;26951;47.338;9.196;2022-09-14T05:08:08;17.70;71.00
41220;DHT22;26951;47.338;9.196;2022-09-14T05:10:56;17.70;71.30
41220;DHT22;26951;47.338;9.196;2022-09-14T05:13:41;17.70;71.40
41220;DHT22;26951;47.338;9.196;2022-09-14T05:16:31;17.70;71.60
41220;DHT22;26951;47.338;9.196;2022-09-14T05:19:16;17.60;71.90
41220;DHT22;26951;47.338;9.196;2022-09-14T05:22:01;17.60;71.60
41220;DHT22;26951;47.338;9.196;2022-09-14T05:24:45;17.60;72.60
41220;DHT22;26951;47.338;9.196;2022-09-14T05:27:30;17.60;72.90
41220;DHT22;26951;47.338;9.196;2022-09-14T05:30:14;17.50;72.00
41220;DHT22;26951;47.338;9.196;2022-09-14T05:32:58;17.50;72.20
41220;DHT22;26951;47.338;9.196;2022-09-14T05:35:42;17.50;71.40
41220;DHT22;26951;47.338;9.196;2022-09-14T05:38:30;17.50;71.10
41220;DHT22;26951;47.338;9.196;2022-09-14T05:41:15;17.40;71.30
41220;DHT22;26951;47.338;9.196;2022-09-14T05:43:59;17.40;71.70
41220;DHT22;26951;47.338;9.196;2022-09-14T05:46:43;17.40;72.40
41220;DHT22;26951;47.338;9.196;2022-09-14T05:49:28;17.40;72.70
41220;DHT22;26951;47.338;9.196;2022-09-14T05:52:12;17.40;74.10
41220;DHT22;26951;47.338;9.196;2022-09-14T05:54:56;17.40;74.60
41220;DHT22;26951;47.338;9.196;2022-09-14T05:57:40;17.50;75.30
41220;DHT22;26951;47.338;9.196;2022-09-14T06:00:24;17.50;75.30
41220;DHT22;26951;47.338;9.196;2022-09-14T06:03:09;17.50;75.30
41220;DHT22;26951;47.338;9.196;2022-09-14T06:05:56;17.50;75.20
41220;DHT22;26951;47.338;9.196;2022-09-14T06:08:41;17.50;75.30
41220;DHT22;26951;47.338;9.196;2022-09-14T06:11:27;17.50;75.70
41220;DHT22;26951;47.338;9.196;2022-09-14T06:14:12;17.60;76.20
41220;DHT22;26951;47.338;9.196;2022-09-14T06:16:57;17.60;76.80
41220;DHT22;26951;47.338;9.196;2022-09-14T06:19:41;17.60;76.70
41220;DHT22;26951;47.338;9.196;2022-09-14T06:22:25;17.70;77.10
41220;DHT22;26951;47.338;9.196;2022-09-14T06:25:09;17.70;76.80
41220;DHT22;26951;47.338;9.196;2022-09-14T06:27:54;17.70;77.00
41220;DHT22;26951;47.338;9.196;2022-09-14T06:30:42;17.80;77.70
41220;DHT22;26951;47.338;9.196;2022-09-14T06:33:26;17.80;77.80
41220;DHT22;26951;47.338;9.196;2022-09-14T06:36:13;17.80;78.20
41220;DHT22;26951;47.338;9.196;2022-09-14T06:38:58;17.90;78.70
41220;DHT22;26951;47.338;9.196;2022-09-14T06:41:43;17.90;79.40
41220;DHT22;26951;47.338;9.196;2022-09-14T06:44:27;18.00;79.40
41220;DHT22;26951;47.338;9.196;2022-09-14T06:47:12;18.00;80.30
41220;DHT22;26951;47.338;9.196;2022-09-14T06:49:56;18.10;81.10
41220;DHT22;26951;47.338;9.196;2022-09-14T06:52:40;18.10;80.70
41220;DHT22;26951;47.338;9.196;2022-09-14T06:55:25;18.20;80.90
41220;DHT22;26951;47.338;9.196;2022-09-14T06:58:10;18.20;81.70
41220;DHT22;26951;47.338;9.196;2022-09-14T07:01:00;18.30;81.60
41220;DHT22;26951;47.338;9.196;2022-09-14T07:03:45;18.30;81.30
41220;DHT22;26951;47.338;9.196;2022-09-14T07:06:32;18.40;81.90
41220;DHT22;26951;47.338;9.196;2022-09-14T07:09:18;18.50;82.00
41220;DHT22;26951;47.338;9.196;2022-09-14T07:12:03;18.50;81.80
41220;DHT22;26951;47.338;9.196;2022-09-14T07:14:47;18.60;81.70
41220;DHT22;26951;47.338;9.196;2022-09-14T07:17:31;18.70;81.70
41220;DHT22;26951;47.338;9.196;2022-09-14T07:20:15;18.70;81.40
41220;DHT22;26951;47.338;9.196;2022-09-14T07:22:59;18.80;81.50
41220;DHT22;26951;47.338;9.196;2022-09-14T07:25:43;18.80;81.10
41220;DHT22;26951;47.338;9.196;2022-09-14T07:28:27;18.90;81.10
41220;DHT22;26951;47.338;9.196;2022-09-14T07:31:19;19.00;81.20
41220;DHT22;26951;47.338;9.196;2022-09-14T07:34:04;19.10;81.40
41220;DHT22;26951;47.338;9.196;2022-09-14T07:36:49;19.10;79.90
41220;DHT22;26951;47.338;9.196;2022-09-14T07:39:33;19.10;77.60
41220;DHT22;26951;47.338;9.196;2022-09-14T07:42:17;19.20;78.20
41220;DHT22;26951;47.338;9.196;2022-09-14T07:45:01;19.30;77.70
41220;DHT22;26951;47.338;9.196;2022-09-14T07:47:46;19.30;78.80
41220;DHT22;26951;47.338;9.196;2022-09-14T07:50:31;19.30;78.20
41220;DHT22;26951;47.338;9.196;2022-09-14T07:53:15;19.40;78.80
41220;DHT22;26951;47.338;9.196;2022-09-14T07:56:00;19.40;79.40
41220;DHT22;26951;47.338;9.196;2022-09-14T07:58:45;19.50;79.20
41220;DHT22;26951;47.338;9.196;2022-09-14T08:01:30;19.50;78.70
41220;DHT22;26951;47.338;9.196;2022-09-14T08:04:14;19.60;74.80
41220;DHT22;26951;47.338;9.196;2022-09-14T08:06:58;19.70;74.60
41220;DHT22;26951;47.338;9.196;2022-09-14T08:09:42;19.90;72.60
41220;DHT22;26951;47.338;9.196;2022-09-14T08:12:26;20.00;71.30
41220;DHT22;26951;47.338;9.196;2022-09-14T08:15:10;20.20;72.00
41220;DHT22;26951;47.338;9.196;2022-09-14T08:17:54;20.40;73.20
41220;DHT22;26951;47.338;9.196;2022-09-14T08:20:38;20.60;72.40
41220;DHT22;26951;47.338;9.196;2022-09-14T08:23:23;20.80;71.10
41220;DHT22;26951;47.338;9.196;2022-09-14T08:26:10;21.00;72.00
41220;DHT22;26951;47.338;9.196;2022-09-14T08:28:55;21.10;71.20
41220;DHT22;26951;47.338;9.196;2022-09-14T08:31:40;21.20;68.10
41220;DHT22;26951;47.338;9.196;2022-09-14T08:34:27;21.40;66.50
41220;DHT22;26951;47.338;9.196;2022-09-14T08:37:11;21.50;65.30
41220;DHT22;26951;47.338;9.196;2022-09-14T08:39:56;21.70;66.50
41220;DHT22;26951;47.338;9.196;2022-09-14T08:42:40;21.80;60.90
41220;DHT22;26951;47.338;9.196;2022-09-14T08:45:25;21.90;60.20
41220;DHT22;26951;47.338;9.196;2022-09-14T08:48:24;22.10;60.00
41220;DHT22;26951;47.338;9.196;2022-09-14T08:51:08;22.20;59.00
41220;DHT22;26951;47.338;9.196;2022-09-14T08:53:56;22.40;56.60
41220;DHT22;26951;47.338;9.196;2022-09-14T08:56:43;22.50;55.50
41220;DHT22;26951;47.338;9.196;2022-09-14T08:59:45;22.50;53.90
41220;DHT22;26951;47.338;9.196;2022-09-14T09:02:54;22.60;53.80
41220;DHT22;26951;47.338;9.196;2022-09-14T09:05:47;22.60;54.90
41220;DHT22;26951;47.338;9.196;2022-09-14T09:08:52;22.70;52.40
41220;DHT22;26951;47.338;9.196;2022-09-14T09:11:41;22.70;52.40
41220;DHT22;26951;47.338;9.196;2022-09-14T09:14:33;22.80;52.20
41220;DHT22;26951;47.338;9.196;2022-09-14T09:17:32;22.80;52.30
41220;DHT22;26951;47.338;9.196;2022-09-14T09:20:25;22.70;52.00
41220;DHT22;26951;47.338;9.196;2022-09-14T09:23:13;22.70;51.50
41220;DHT22;26951;47.338;9.196;2022-09-14T09:29:04;22.80;53.80
41220;DHT22;26951;47.338;9.196;2022-09-14T09:31:54;22.90;54.60
41220;DHT22;26951;47.338;9.196;2022-09-14T09:34:39;22.90;51.50
41220;DHT22;26951;47.338;9.196;2022-09-14T09:37:23;23.00;53.20
41220;DHT22;26951;47.338;9.196;2022-09-14T09:40:22;23.10;51.20
41220;DHT22;26951;47.338;9.196;2022-09-14T09:43:12;23.10;52.10
41220;DHT22;26951;47.338;9.196;2022-09-14T09:46:04;23.30;53.40
41220;DHT22;26951;47.338;9.196;2022-09-14T09:48:49;23.40;52.20
41220;DHT22;26951;47.338;9.196;2022-09-14T09:51:34;23.50;52.00
41220;DHT22;26951;47.338;9.196;2022-09-14T09:54:21;23.50;50.10
41220;DHT22;26951;47.338;9.196;2022-09-14T10:00:24;23.70;51.60
41220;DHT22;26951;47.338;9.196;2022-09-14T10:03:35;23.70;51.60
41220;DHT22;26951;47.338;9.196;2022-09-14T10:06:20;23.70;49.60
41220;DHT22;26951;47.338;9.196;2022-09-14T10:09:15;23.80;51.60
41220;DHT22;26951;47.338;9.196;2022-09-14T10:12:02;23.90;51.70
41220;DHT22;26951;47.338;9.196;2022-09-14T10:14:46;24.00;51.60
41220;DHT22;26951;47.338;9.196;2022-09-14T10:17:30;24.00;50.70
41220;DHT22;26951;47.338;9.196;2022-09-14T10:20:21;24.10;51.70
41220;DHT22;26951;47.338;9.196;2022-09-14T10:29:29;24.20;51.80
41220;DHT22;26951;47.338;9.196;2022-09-14T10:32:19;24.10;49.90
41220;DHT22;26951;47.338;9.196;2022-09-14T10:35:12;24.10;49.40
41220;DHT22;26951;47.338;9.196;2022-09-14T10:38:00;24.00;48.90
41220;DHT22;26951;47.338;9.196;2022-09-14T10:40:54;24.00;49.30
41220;DHT22;26951;47.338;9.196;2022-09-14T10:43:47;23.90;49.80
41220;DHT22;26951;47.338;9.196;2022-09-14T10:46:47;23.90;49.70
41220;DHT22;26951;47.338;9.196;2022-09-14T10:56:10;23.80;54.50
41220;DHT22;26951;47.338;9.196;2022-09-14T10:59:10;23.90;54.70
41220;DHT22;26951;47.338;9.196;2022-09-14T11:05:02;23.80;53.40
41220;DHT22;26951;47.338;9.196;2022-09-14T11:08:02;23.70;53.40
41220;DHT22;26951;47.338;9.196;2022-09-14T11:11:26;23.60;53.00
41220;DHT22;26951;47.338;9.196;2022-09-14T11:14:15;23.50;52.90
41220;DHT22;26951;47.338;9.196;2022-09-14T11:23:38;23.30;53.80
41220;DHT22;26951;47.338;9.196;2022-09-14T11:26:35;23.10;54.70
41220;DHT22;26951;47.338;9.196;2022-09-14T11:29:30;23.00;55.70
41220;DHT22;26951;47.338;9.196;2022-09-14T11:32:23;22.80;55.80
41220;DHT22;26951;47.338;9.196;2022-09-14T11:35:17;22.80;56.80
41220;DHT22;26951;47.338;9.196;2022-09-14T11:38:07;22.80;57.70
41220;DHT22;26951;47.338;9.196;2022-09-14T11:41:06;23.00;58.70
41220;DHT22;26951;47.338;9.196;2022-09-14T11:44:12;23.10;57.60
41220;DHT22;26951;47.338;9.196;2022-09-14T11:47:21;23.20;55.00
41220;DHT22;26951;47.338;9.196;2022-09-14T11:50:27;23.20;55.00
41220;DHT22;26951;47.338;9.196;2022-09-14T11:53:14;23.30;55.50
41220;DHT22;26951;47.338;9.196;2022-09-14T11:55:59;23.30;53.80
41220;DHT22;26951;47.338;9.196;2022-09-14T11:58:45;23.30;54.40
41220;DHT22;26951;47.338;9.196;2022-09-14T12:01:38;23.30;54.40
41220;DHT22;26951;47.338;9.196;2022-09-14T12:04:22;23.30;53.50
41220;DHT22;26951;47.338;9.196;2022-09-14T12:07:07;23.20;52.30
41220;DHT22;26951;47.338;9.196;2022-09-14T12:09:51;23.10;53.30
41220;DHT22;26951;47.338;9.196;2022-09-14T12:12:37;23.10;54.30
41220;DHT22;26951;47.338;9.196;2022-09-14T12:21:03;23.10;54.70
41220;DHT22;26951;47.338;9.196;2022-09-14T12:23:48;23.00;56.20
41220;DHT22;26951;47.338;9.196;2022-09-14T12:26:35;23.00;57.60
41220;DHT22;26951;47.338;9.196;2022-09-14T12:29:29;22.90;58.60
41220;DHT22;26951;47.338;9.196;2022-09-14T12:32:37;22.80;59.80
41220;DHT22;26951;47.338;9.196;2022-09-14T12:35:38;22.70;59.50
41220;DHT22;26951;47.338;9.196;2022-09-14T12:43:57;22.50;59.50
41220;DHT22;26951;47.338;9.196;2022-09-14T12:46:42;22.40;59.20
41220;DHT22;26951;47.338;9.196;2022-09-14T12:49:31;22.20;59.40
41220;DHT22;26951;47.338;9.196;2022-09-14T12:55:39;22.00;62.30
41220;DHT22;26951;47.338;9.196;2022-09-14T13:01:53;21.80;63.60
41220;DHT22;26951;47.338;9.196;2022-09-14T13:04:41;21.60;63.90
41220;DHT22;26951;47.338;9.196;2022-09-14T13:07:34;21.50;64.10
41220;DHT22;26951;47.338;9.196;2022-09-14T13:10:27;21.40;63.80
41220;DHT22;26951;47.338;9.196;2022-09-14T13:13:18;21.40;64.90
41220;DHT22;26951;47.338;9.196;2022-09-14T13:16:04;21.30;64.50
41220;DHT22;26951;47.338;9.196;2022-09-14T13:18:59;21.30;64.40
41220;DHT22;26951;47.338;9.196;2022-09-14T13:21:48;21.30;64.90
41220;DHT22;26951;47.338;9.196;2022-09-14T13:27:28;21.50;65.10
41220;DHT22;26951;47.338;9.196;2022-09-14T13:30:20;21.60;66.70
41220;DHT22;26951;47.338;9.196;2022-09-14T13:33:05;21.70;65.50
41220;DHT22;26951;47.338;9.196;2022-09-14T13:35:52;21.80;64.50
41220;DHT22;26951;47.338;9.196;2022-09-14T13:38:37;21.80;65.90
41220;DHT22;26951;47.338;9.196;2022-09-14T13:41:22;21.80;65.00
41220;DHT22;26951;47.338;9.196;2022-09-14T13:44:06;21.70;64.20
41220;DHT22;26951;47.338;9.196;2022-09-14T13:46:51;21.70;64.20
41220;DHT22;26951;47.338;9.196;2022-09-14T13:49:36;21.80;63.60
41220;DHT22;26951;47.338;9.196;2022-09-14T13:55:20;21.80;61.90
41220;DHT22;26951;47.338;9.196;2022-09-14T13:58:15;21.80;63.30
41220;DHT22;26951;47.338;9.196;2022-09-14T14:01:03;21.80;63.80
41220;DHT22;26951;47.338;9.196;2022-09-14T14:03:48;21.80;62.80
41220;DHT22;26951;47.338;9.196;2022-09-14T14:06:34;21.80;64.40
41220;DHT22;26951;47.338;9.196;2022-09-14T14:09:20;21.80;64.50
41220;DHT22;26951;47.338;9.196;2022-09-14T14:12:05;21.80;62.60
41220;DHT22;26951;47.338;9.196;2022-09-14T14:17:47;21.80;65.70
41220;DHT22;26951;47.338;9.196;2022-09-14T14:20:35;21.90;67.00
41220;DHT22;26951;47.338;9.196;2022-09-14T14:23:20;22.00;66.10
41220;DHT22;26951;47.338;9.196;2022-09-14T14:26:12;22.10;64.80
41220;DHT22;26951;47.338;9.196;2022-09-14T14:29:07;22.10;64.00
41220;DHT22;26951;47.338;9.196;2022-09-14T14:31:54;22.00;62.90
41220;DHT22;26951;47.338;9.196;2022-09-14T14:34:38;22.00;61.00
41220;DHT22;26951;47.338;9.196;2022-09-14T14:37:22;21.90;61.50
41220;DHT22;26951;47.338;9.196;2022-09-14T14:40:10;21.80;60.80
41220;DHT22;26951;47.338;9.196;2022-09-14T14:42:56;21.70;61.30
41220;DHT22;26951;47.338;9.196;2022-09-14T14:45:41;21.80;62.50
41220;DHT22;26951;47.338;9.196;2022-09-14T14:48:26;21.90;65.10
41220;DHT22;26951;47.338;9.196;2022-09-14T14:51:12;22.00;65.00
41220;DHT22;26951;47.338;9.196;2022-09-14T14:53:59;22.20;62.30
41220;DHT22;26951;47.338;9.196;2022-09-14T14:56:45;22.20;58.50
41220;DHT22;26951;47.338;9.196;2022-09-14T14:59:30;22.20;59.20
41220;DHT22;26951;47.338;9.196;2022-09-14T15:02:15;22.20;60.10
41220;DHT22;26951;47.338;9.196;2022-09-14T15:05:03;22.30;58.60
41220;DHT22;26951;47.338;9.196;2022-09-14T15:07:47;22.40;57.70
41220;DHT22;26951;47.338;9.196;2022-09-14T15:11:14;22.50;59.90
41220;DHT22;26951;47.338;9.196;2022-09-14T15:13:59;22.70;58.80
41220;DHT22;26951;47.338;9.196;2022-09-14T15:16:44;22.80;60.20
41220;DHT22;26951;47.338;9.196;2022-09-14T15:19:29;22.90;58.20
41220;DHT22;26951;47.338;9.196;2022-09-14T15:22:13;22.90;56.70
41220;DHT22;26951;47.338;9.196;2022-09-14T15:24:57;23.00;56.70
41220;DHT22;26951;47.338;9.196;2022-09-14T15:27:42;23.00;55.80
41220;DHT22;26951;47.338;9.196;2022-09-14T15:30:26;22.90;55.50
41220;DHT22;26951;47.338;9.196;2022-09-14T15:33:10;22.90;54.30
41220;DHT22;26951;47.338;9.196;2022-09-14T15:35:56;23.00;54.30
41220;DHT22;26951;47.338;9.196;2022-09-14T15:38:40;22.90;55.00
41220;DHT22;26951;47.338;9.196;2022-09-14T15:41:24;22.80;54.80
41220;DHT22;26951;47.338;9.196;2022-09-14T15:44:09;22.70;55.00
41220;DHT22;26951;47.338;9.196;2022-09-14T15:46:56;22.60;55.70
41220;DHT22;26951;47.338;9.196;2022-09-14T15:49:41;22.50;55.30
41220;DHT22;26951;47.338;9.196;2022-09-14T15:52:33;22.40;56.20
41220;DHT22;26951;47.338;9.196;2022-09-14T15:55:18;22.30;56.70
41220;DHT22;26951;47.338;9.196;2022-09-14T15:58:03;22.20;58.00
41220;DHT22;26951;47.338;9.196;2022-09-14T16:00:50;22.20;58.50
41220;DHT22;26951;47.338;9.196;2022-09-14T16:03:34;22.10;59.00
41220;DHT22;26951;47.338;9.196;2022-09-14T16:06:19;22.00;59.00
41220;DHT22;26951;47.338;9.196;2022-09-14T16:09:05;21.90;60.10
41220;DHT22;26951;47.338;9.196;2022-09-14T16:11:49;21.80;59.70
41220;DHT22;26951;47.338;9.196;2022-09-14T16:14:34;21.70;59.50
41220;DHT22;26951;47.338;9.196;2022-09-14T16:17:18;21.70;59.20
41220;DHT22;26951;47.338;9.196;2022-09-14T16:20:04;21.50;60.40
41220;DHT22;26951;47.338;9.196;2022-09-14T16:22:51;21.50;60.00
41220;DHT22;26951;47.338;9.196;2022-09-14T16:26:12;21.40;59.60
41220;DHT22;26951;47.338;9.196;2022-09-14T16:32:38;21.10;61.10
41220;DHT22;26951;47.338;9.196;2022-09-14T16:49:58;19.90;65.40
41220;DHT22;26951;47.338;9.196;2022-09-14T16:52:43;19.70;64.90
41220;DHT22;26951;47.338;9.196;2022-09-14T16:55:28;19.70;66.40
41220;DHT22;26951;47.338;9.196;2022-09-14T16:58:13;19.60;65.90
41220;DHT22;26951;47.338;9.196;2022-09-14T17:01:07;19.60;67.60
41220;DHT22;26951;47.338;9.196;2022-09-14T17:03:58;19.60;66.20
41220;DHT22;26951;47.338;9.196;2022-09-14T17:06:44;19.60;65.00
41220;DHT22;26951;47.338;9.196;2022-09-14T17:09:29;19.60;65.70
41220;DHT22;26951;47.338;9.196;2022-09-14T17:12:14;19.60;65.40
41220;DHT22;26951;47.338;9.196;2022-09-14T17:14:58;19.50;64.70
41220;DHT22;26951;47.338;9.196;2022-09-14T17:17:43;19.50;65.90
41220;DHT22;26951;47.338;9.196;2022-09-14T17:20:27;19.40;65.10
41220;DHT22;26951;47.338;9.196;2022-09-14T17:23:11;19.30;64.50
41220;DHT22;26951;47.338;9.196;2022-09-14T17:25:56;19.30;65.10
41220;DHT22;26951;47.338;9.196;2022-09-14T17:28:41;19.20;65.70
41220;DHT22;26951;47.338;9.196;2022-09-14T17:31:32;19.10;65.50
41220;DHT22;26951;47.338;9.196;2022-09-14T17:34:16;19.00;65.60
41220;DHT22;26951;47.338;9.196;2022-09-14T17:37:01;18.90;65.20
41220;DHT22;26951;47.338;9.196;2022-09-14T17:39:45;18.80;65.30
41220;DHT22;26951;47.338;9.196;2022-09-14T17:42:29;18.80;65.30
41220;DHT22;26951;47.338;9.196;2022-09-14T17:45:20;18.70;64.50
41220;DHT22;26951;47.338;9.196;2022-09-14T17:48:05;18.60;64.60
41220;DHT22;26951;47.338;9.196;2022-09-14T17:50:49;18.50;65.40
41220;DHT22;26951;47.338;9.196;2022-09-14T17:53:38;18.40;66.20
41220;DHT22;26951;47.338;9.196;2022-09-14T17:56:26;18.40;65.70
41220;DHT22;26951;47.338;9.196;2022-09-14T17:59:13;18.30;65.40
41220;DHT22;26951;47.338;9.196;2022-09-14T18:01:58;18.10;64.70
41220;DHT22;26951;47.338;9.196;2022-09-14T18:04:45;18.00;66.70
41220;DHT22;26951;47.338;9.196;2022-09-14T18:07:30;17.90;68.30
41220;DHT22;26951;47.338;9.196;2022-09-14T18:10:14;17.90;67.10
41220;DHT22;26951;47.338;9.196;2022-09-14T18:13:01;17.80;66.80
41220;DHT22;26951;47.338;9.196;2022-09-14T18:15:46;17.80;66.60
41220;DHT22;26951;47.338;9.196;2022-09-14T18:18:30;17.80;67.00
41220;DHT22;26951;47.338;9.196;2022-09-14T18:21:14;17.70;69.20
41220;DHT22;26951;47.338;9.196;2022-09-14T18:23:59;17.60;69.60
41220;DHT22;26951;47.338;9.196;2022-09-14T18:26:43;17.50;69.70
41220;DHT22;26951;47.338;9.196;2022-09-14T18:29:29;17.50;69.70
41220;DHT22;26951;47.338;9.196;2022-09-14T18:32:14;17.50;70.00
41220;DHT22;26951;47.338;9.196;2022-09-14T18:34:58;17.40;69.90
41220;DHT22;26951;47.338;9.196;2022-09-14T18:37:44;17.40;69.60
41220;DHT22;26951;47.338;9.196;2022-09-14T18:40:28;17.40;68.40
41220;DHT22;26951;47.338;9.196;2022-09-14T18:43:14;17.30;68.50
41220;DHT22;26951;47.338;9.196;2022-09-14T18:46:06;17.30;69.60
41220;DHT22;26951;47.338;9.196;2022-09-14T18:48:51;17.20;69.80
41220;DHT22;26951;47.338;9.196;2022-09-14T18:51:39;17.20;70.20
41220;DHT22;26951;47.338;9.196;2022-09-14T18:54:24;17.10;70.60
41220;DHT22;26951;47.338;9.196;2022-09-14T18:57:08;17.10;71.10
41220;DHT22;26951;47.338;9.196;2022-09-14T18:59:52;17.10;70.80
41220;DHT22;26951;47.338;9.196;2022-09-14T19:02:37;17.00;71.00
41220;DHT22;26951;47.338;9.196;2022-09-14T19:05:23;17.00;71.50
41220;DHT22;26951;47.338;9.196;2022-09-14T19:08:08;17.00;71.30
41220;DHT22;26951;47.338;9.196;2022-09-14T19:10:53;16.90;71.40
41220;DHT22;26951;47.338;9.196;2022-09-14T19:13:37;16.90;71.90
41220;DHT22;26951;47.338;9.196;2022-09-14T19:16:21;16.80;72.30
41220;DHT22;26951;47.338;9.196;2022-09-14T19:19:07;16.80;72.60